Aeroporto :
LOGIN :

Iscrizione | Disclaimer

   EN    FR    IT 

 










Sommario :    VFR   VFR Marginale   IFR   IFR Intensivo   IFR Molto Intensivo
Visibilità : 
Base nubi : 
>= 8 km
>= 3000ft
5 / 8 km
1000 / 3000 ft
1500m / 5 km
500 / 1000 ft
800 / 1500m
200 / 500 ft
< 800m
< 200 ft
Simboli :   Temporali  Nebbia  Neve Forte  Precipitazioni Forti  Vento > 20 kt
SIGMETs :   Varie  Temporali  Ghiacco  Turbolenza  Onda orograficha  Ceneri Vulcaniche






- Altitudine del aeroporto : 2356 ft


LZTT - Poprad Tatry

ULTIMO METAR :
  • 211400Z 14006KT 9999 -RA FEW005 SCT016 BKN025 08/06 Q1014 NOSIG

METARs OBSOLETI :
  • 211330Z 12007KT 9999 -RA FEW005 BKN020 08/06 Q1014 NOSIG
  • 211300Z 12006KT 9999 -RA FEW005 BKN020 08/06 Q1014 NOSIG
  • 211230Z 12006KT 8000 -RA FEW005 BKN020 08/06 Q1014 NOSIG
  • 211200Z 12006KT 8000 -RA FEW005 SCT020 BKN026 08/07 Q1014 NOSIG
  • 211130Z 12005KT 080V140 8000 -RA FEW005 BKN020 BKN026 08/07 Q1014 NOSIG

TAF TAF LZTT
Valido dal 21 a 12 ore il 22 a 12 ore UTC


211100Z 2112/2212 16005KT 9999 SCT020 OVC040
TEMPO 2112/2116 6000 -RA SCT008 BKN015
BECMG 2115/2117 VRB02KT
TEMPO 2120/2208 2500 -DZ BR BKN004 OVC020
BECMG 2210/2212 10005KT



MetMap, La meteo Aeronautica in un colpo d'occhio ! - Copyright ORBIFLY Dicembre 2007 - Disclaimer

ORBIFLY MET'MAP TEAM :

Programmazione e sviluppo : Alexandra Zaïnal
Concezione e sviluppo : Baudouin d'Aumeries
Co-Programmazione e sviluppo : Marc-Olivier Méhu
Supporto tecnico e logistico : Manuel Goepfert
Aiuto per la traduzione : Arnaldo La Scala

Contatto : metmap@orbifly.com




FONTI E CREDITI :

   NOAA